createdAt,value
2023-04-01T00:00:49.621Z,-23405.63
2023-04-01T00:02:52.612Z,-23405.63
2023-04-01T00:04:55.257Z,-23406.28
2023-04-01T00:06:57.965Z,-23406.28
2023-04-01T00:09:00.626Z,-23405.78
2023-04-01T00:11:03.386Z,-23405.94
2023-04-01T00:13:06.325Z,-23408.50
2023-04-01T00:15:11.536Z,-23407.84
2023-04-01T00:17:16.021Z,-23408.16
2023-04-01T00:19:18.617Z,-23409.75
2023-04-01T00:21:22.933Z,-23408.97
2023-04-01T00:23:25.694Z,-23409.75
2023-04-01T00:25:28.516Z,-23409.13
2023-04-01T00:27:31.402Z,-23408.66
2023-04-01T00:29:34.027Z,-23407.84
2023-04-01T00:31:36.881Z,-23407.84
2023-04-01T00:33:41.886Z,-23407.84
2023-04-01T00:35:44.613Z,-23408.34
2023-04-01T00:37:48.216Z,-23407.69
2023-04-01T00:39:50.883Z,-23406.91
2023-04-01T00:41:53.974Z,-23407.38
2023-04-01T00:44:17.161Z,-23408.81
2023-04-01T00:46:19.879Z,-23408.97
2023-04-01T00:48:26.396Z,-23410.72
2023-04-01T00:50:32.429Z,-23410.06
2023-04-01T00:52:35.355Z,-23408.81
2023-04-01T00:54:39.792Z,-23408.66
2023-04-01T00:56:49.664Z,-23411.19
2023-04-01T00:58:56.202Z,-23410.06
2023-04-01T01:01:00.654Z,-23409.44
2023-04-01T01:03:04.019Z,-23410.25
2023-04-01T01:05:07.327Z,-23410.88
2023-04-01T01:07:22.368Z,-23409.91
2023-04-01T01:09:33.242Z,-23411.97
2023-04-01T01:11:43.725Z,-23411.66
2023-04-01T01:13:58.439Z,-23409.44
2023-04-01T01:16:06.721Z,-23407.53
2023-04-01T01:18:18.808Z,-23407.84
2023-04-01T01:20:56.963Z,-23407.22
2023-04-01T01:23:24.932Z,-23408.97
2023-04-01T01:25:46.153Z,-23407.84
2023-04-01T01:27:56.796Z,-23408.16
2023-04-01T01:30:18.106Z,-23407.22
2023-04-01T01:32:36.496Z,-23408.97
2023-04-01T01:34:47.553Z,-23407.69
2023-04-01T01:36:57.011Z,-23406.28
2023-04-01T01:39:00.546Z,-23407.53
2023-04-01T01:41:06.343Z,-23405.94
2023-04-01T01:43:13.394Z,-23407.22
2023-04-01T01:45:19.179Z,-23407.53
2023-04-01T01:47:24.196Z,-23405.63
2023-04-01T01:49:31.013Z,-23404.84
2023-04-01T01:51:33.521Z,-23404.34
2023-04-01T01:53:38.230Z,-23402.78
2023-04-01T01:55:43.425Z,-23402.63
2023-04-01T01:57:46.829Z,-23403.88
2023-04-01T01:59:50.941Z,-23401.97
2023-04-01T02:01:59.969Z,-23402.13
2023-04-01T02:04:02.787Z,-23402.13
2023-04-01T02:06:09.617Z,-23401.19
2023-04-01T02:08:14.768Z,-23401.81
2023-04-01T02:10:21.362Z,-23402.63
2023-04-01T02:12:25.872Z,-23401.19
2023-04-01T02:14:33.692Z,-23401.50
2023-04-01T02:16:41.876Z,-23402.13
2023-04-01T02:18:47.702Z,-23401.50
2023-04-01T02:20:51.449Z,-23401.19
2023-04-01T02:22:56.431Z,-23399.91
2023-04-01T02:25:03.520Z,-23398.78
2023-04-01T02:27:07.668Z,-23398.31
2023-04-01T02:29:13.622Z,-23397.38
2023-04-01T02:31:17.050Z,-23399.28
2023-04-01T02:33:21.609Z,-23398.66
2023-04-01T02:35:24.877Z,-23396.72
2023-04-01T02:37:27.861Z,-23396.41
2023-04-01T02:39:30.584Z,-23396.25
2023-04-01T02:41:33.276Z,-23395.31
2023-04-01T02:43:37.293Z,-23397.38
2023-04-01T02:45:40.007Z,-23396.72
2023-04-01T02:47:42.728Z,-23395.16
2023-04-01T02:49:45.351Z,-23395.47
2023-04-01T02:51:48.028Z,-23395.94
2023-04-01T02:53:50.665Z,-23394.50
2023-04-01T02:55:53.373Z,-23393.88
2023-04-01T02:57:55.974Z,-23393.56
2023-04-01T02:59:59.900Z,-23393.22
2023-04-01T03:02:02.584Z,-23393.56
2023-04-01T03:04:06.187Z,-23392.44
2023-04-01T03:06:10.555Z,-23392.59
2023-04-01T03:08:13.392Z,-23391.66
2023-04-01T03:10:16.326Z,-23392.59
2023-04-01T03:12:18.962Z,-23390.69
2023-04-01T03:14:21.570Z,-23391.81
2023-04-01T03:16:25.989Z,-23391.97
2023-04-01T03:18:28.660Z,-23392.28
2023-04-01T03:20:31.298Z,-23393.22
2023-04-01T03:22:33.898Z,-23393.88
2023-04-01T03:24:36.546Z,-23392.59
2023-04-01T03:26:39.243Z,-23393.22
2023-04-01T03:28:41.926Z,-23390.38
2023-04-01T03:30:44.676Z,-23391.00
2023-04-01T03:32:48.729Z,-23391.34
2023-04-01T03:34:51.406Z,-23393.41
2023-04-01T03:36:54.136Z,-23391.97
2023-04-01T03:38:56.671Z,-23392.44
2023-04-01T03:40:59.248Z,-23392.91
2023-04-01T03:43:01.895Z,-23392.59
2023-04-01T03:45:05.447Z,-23391.97
2023-04-01T03:47:10.065Z,-23391.81
2023-04-01T03:49:13.998Z,-23390.53
2023-04-01T03:51:16.754Z,-23389.75
2023-04-01T03:53:19.799Z,-23388.94
2023-04-01T03:55:22.782Z,-23390.53
2023-04-01T03:57:25.905Z,-23390.22
2023-04-01T03:59:28.631Z,-23389.59
2023-04-01T04:01:31.661Z,-23387.19
2023-04-01T04:03:34.430Z,-23386.25
2023-04-01T04:05:38.481Z,-23384.97
2023-04-01T04:07:41.280Z,-23384.97
2023-04-01T04:09:44.026Z,-23383.38
2023-04-01T04:11:47.050Z,-23380.38
2023-04-01T04:13:49.944Z,-23379.09
2023-04-01T04:15:52.541Z,-23377.19
2023-04-01T04:17:55.337Z,-23377.19
2023-04-01T04:19:57.986Z,-23375.75
2023-04-01T04:22:02.459Z,-23377.03
2023-04-01T04:24:05.978Z,-23377.34
2023-04-01T04:26:10.330Z,-23376.56
2023-04-01T04:28:12.972Z,-23375.13
2023-04-01T04:30:16.037Z,-23376.41
2023-04-01T04:32:18.697Z,-23375.13
2023-04-01T04:34:23.234Z,-23375.28
2023-04-01T04:36:25.812Z,-23373.84
2023-04-01T04:38:30.171Z,-23372.25
2023-04-01T04:40:32.874Z,-23372.72
2023-04-01T04:42:35.446Z,-23374.50
2023-04-01T04:44:38.211Z,-23373.53
2023-04-01T04:46:41.283Z,-23374.16
2023-04-01T04:48:44.737Z,-23374.50
2023-04-01T04:50:48.338Z,-23374.50
2023-04-01T04:52:51.061Z,-23375.44
2023-04-01T04:54:55.026Z,-23375.44
2023-04-01T04:56:57.723Z,-23375.13
2023-04-01T04:59:00.924Z,-23375.13
2023-04-01T05:01:08.034Z,-23374.16
2023-04-01T05:03:11.947Z,-23375.59
2023-04-01T05:05:14.613Z,-23376.56
2023-04-01T05:07:17.189Z,-23376.72
2023-04-01T05:09:20.174Z,-23378.13
2023-04-01T05:11:24.287Z,-23377.81
2023-04-01T05:13:27.100Z,-23377.34
2023-04-01T05:15:29.803Z,-23379.88
2023-04-01T05:17:32.414Z,-23378.47
2023-04-01T05:19:35.319Z,-23378.31
2023-04-01T05:21:37.917Z,-23378.31
2023-04-01T05:23:40.877Z,-23382.13
2023-04-01T05:25:43.668Z,-23382.44
2023-04-01T05:27:47.820Z,-23383.38
2023-04-01T05:29:50.509Z,-23383.88
2023-04-01T05:31:53.145Z,-23384.19
2023-04-01T05:33:55.843Z,-23385.28
2023-04-01T05:35:58.488Z,-23390.38
2023-04-01T05:38:01.192Z,-23391.34
2023-04-01T05:40:04.581Z,-23393.09
2023-04-01T05:42:08.423Z,-23395.94
2023-04-01T05:44:14.397Z,-23394.81
2023-04-01T05:46:17.046Z,-23400.53
2023-04-01T05:48:19.831Z,-23400.72
2023-04-01T05:50:22.634Z,-23403.56
2023-04-01T05:52:26.313Z,-23402.44
2023-04-01T05:54:29.013Z,-23401.66
2023-04-01T05:56:31.614Z,-23402.78
2023-04-01T05:58:34.319Z,-23407.38
2023-04-01T06:00:38.525Z,-23408.00
2023-04-01T06:02:43.001Z,-23408.16
2023-04-01T06:04:45.908Z,-23409.44
2023-04-01T06:06:48.725Z,-23414.38
2023-04-01T06:08:51.359Z,-23412.94
2023-04-01T06:11:06.891Z,-23414.53
2023-04-01T06:13:19.686Z,-23416.44
2023-04-01T06:15:39.060Z,-23414.69
2023-04-01T06:18:03.330Z,-23415.78
2023-04-01T06:20:14.142Z,-23421.19
2023-04-01T06:22:37.730Z,-23419.59
2023-04-01T06:24:54.030Z,-23423.41
2023-04-01T06:27:09.648Z,-23422.47
2023-04-01T06:29:29.530Z,-23426.75
2023-04-01T06:31:58.807Z,-23425.00
2023-04-01T06:34:16.884Z,-23424.06
2023-04-01T06:36:44.884Z,-23424.06
2023-04-01T06:39:02.801Z,-23425.63
2023-04-01T06:41:31.967Z,-23425.63
2023-04-01T06:43:46.599Z,-23428.34
2023-04-01T06:45:58.893Z,-23427.53
2023-04-01T06:48:19.864Z,-23424.06
2023-04-01T06:50:28.434Z,-23427.84
2023-04-01T06:52:43.471Z,-23426.28
2023-04-01T06:54:50.455Z,-23423.25
2023-04-01T06:56:59.640Z,-23426.44
2023-04-01T06:59:07.103Z,-23427.53
2023-04-01T07:01:14.500Z,-23428.19
2023-04-01T07:03:24.161Z,-23426.13
2023-04-01T07:05:37.726Z,-23425.97
2023-04-01T07:07:43.905Z,-23426.28
2023-04-01T07:09:52.844Z,-23432.00
2023-04-01T07:11:58.937Z,-23431.34
2023-04-01T07:14:06.032Z,-23428.50
2023-04-01T07:16:16.831Z,-23436.75
2023-04-01T07:18:27.730Z,-23432.31
2023-04-01T07:20:32.829Z,-23431.34
2023-04-01T07:22:37.842Z,-23428.19
2023-04-01T07:24:43.567Z,-23426.59
2023-04-01T07:26:46.938Z,-23425.63
2023-04-01T07:28:52.873Z,-23429.44
2023-04-01T07:31:11.119Z,-23425.63
2023-04-01T07:33:19.016Z,-23430.09
2023-04-01T07:35:30.621Z,-23428.66
2023-04-01T07:37:44.428Z,-23430.56
2023-04-01T07:39:56.470Z,-23430.41
2023-04-01T07:42:08.341Z,-23427.72
2023-04-01T07:44:18.447Z,-23432.78
2023-04-01T07:46:32.226Z,-23430.09
2023-04-01T07:48:46.110Z,-23428.81
2023-04-01T07:50:57.629Z,-23431.03
2023-04-01T07:53:10.815Z,-23432.31
2023-04-01T07:55:19.085Z,-23435.66
2023-04-01T07:57:29.329Z,-23437.88
2023-04-01T07:59:42.730Z,-23434.22
2023-04-01T08:01:51.764Z,-23436.13
2023-04-01T08:04:15.259Z,-23436.91
2023-04-01T08:06:26.566Z,-23438.34
2023-04-01T08:08:41.463Z,-23436.44
2023-04-01T08:10:52.527Z,-23438.97
2023-04-01T08:13:02.375Z,-23438.66
2023-04-01T08:15:15.919Z,-23438.97
2023-04-01T08:17:28.977Z,-23438.97
2023-04-01T08:19:40.444Z,-23439.13
2023-04-01T08:21:49.255Z,-23438.19
2023-04-01T08:23:57.971Z,-23440.09
2023-04-01T08:26:06.911Z,-23441.69
2023-04-01T08:28:18.284Z,-23438.34
2023-04-01T08:30:23.441Z,-23442.94
2023-04-01T08:32:30.930Z,-23443.75
2023-04-01T08:34:38.413Z,-23445.31
2023-04-01T08:36:45.440Z,-23444.69
2023-04-01T08:38:55.990Z,-23442.31
2023-04-01T08:41:39.177Z,-23442.78
2023-04-01T08:44:03.310Z,-23434.22
2023-04-01T08:46:31.920Z,-23434.53
2023-04-01T08:49:01.263Z,-23430.72
2023-04-01T08:51:39.573Z,-23430.09
2023-04-01T08:54:07.210Z,-23426.75
2023-04-01T08:56:16.817Z,-23423.88
2023-04-01T08:58:48.086Z,-23419.59
2023-04-01T09:00:56.522Z,-23418.97
2023-04-01T09:03:36.140Z,-23419.28
2023-04-01T09:06:22.804Z,-23418.03
2023-04-01T09:08:40.910Z,-23421.81
2023-04-01T09:10:59.366Z,-23420.56
2023-04-01T09:13:16.407Z,-23421.81
2023-04-01T09:15:36.427Z,-23427.22
2023-04-01T09:18:18.885Z,-23431.84
2023-04-01T09:20:37.211Z,-23438.97
2023-04-01T09:22:52.548Z,-23437.22
2023-04-01T09:25:17.393Z,-23439.78
2023-04-01T09:27:29.342Z,-23444.53
2023-04-01T09:29:54.161Z,-23449.44
2023-04-01T09:32:15.313Z,-23447.88
2023-04-01T09:34:35.069Z,-23451.03
2023-04-01T09:36:47.488Z,-23465.63
2023-04-01T09:38:59.033Z,-23469.13
2023-04-01T09:41:09.720Z,-23458.97
2023-04-01T09:43:32.049Z,-23452.47
2023-04-01T09:45:45.903Z,-23453.25
2023-04-01T09:48:05.004Z,-23444.06
2023-04-01T09:50:31.720Z,-23448.81
2023-04-01T09:52:45.425Z,-23441.84
2023-04-01T09:55:08.288Z,-23446.59
2023-04-01T09:57:40.359Z,-23443.41
2023-04-01T10:00:10.429Z,-23440.88
2023-04-01T10:02:50.207Z,-23439.94
2023-04-01T10:05:14.754Z,-23440.56
2023-04-01T10:08:08.292Z,-23438.34
2023-04-01T10:10:49.133Z,-23441.69
2023-04-01T10:13:21.751Z,-23442.16
2023-04-01T10:16:21.462Z,-23442.16
2023-04-01T10:18:43.203Z,-23444.53
2023-04-01T10:21:13.499Z,-23441.69
2023-04-01T10:23:27.244Z,-23442.78
2023-04-01T10:26:05.057Z,-23448.19
2023-04-01T10:28:46.254Z,-23453.09
2023-04-01T10:31:16.941Z,-23459.44
2023-04-01T10:33:52.175Z,-23458.66
2023-04-01T10:36:31.152Z,-23458.97
2023-04-01T10:39:05.860Z,-23457.22
2023-04-01T10:41:51.263Z,-23467.22
2023-04-01T10:44:28.428Z,-23473.56
2023-04-01T10:47:04.772Z,-23481.00
2023-04-01T10:49:25.388Z,-23484.66
2023-04-01T10:51:53.714Z,-23471.97
2023-04-01T10:54:19.627Z,-23482.59
2023-04-01T10:56:47.680Z,-23476.72
2023-04-01T10:59:26.315Z,-23484.19
2023-04-01T11:02:26.248Z,-23477.69
2023-04-01T11:04:45.401Z,-23471.19
2023-04-01T11:07:24.190Z,-23469.75
2023-04-01T11:10:12.372Z,-23472.59
2023-04-01T11:12:37.228Z,-23469.13
2023-04-01T11:15:18.987Z,-23464.38
2023-04-01T11:17:54.046Z,-23468.81
2023-04-01T11:20:30.591Z,-23475.47
2023-04-01T11:22:52.642Z,-23477.38
2023-04-01T11:25:13.905Z,-23480.84
2023-04-01T11:27:36.507Z,-23479.25
2023-04-01T11:30:05.155Z,-23477.38
2023-04-01T11:32:22.498Z,-23479.59
2023-04-01T11:34:44.758Z,-23487.50
2023-04-01T11:37:00.442Z,-23482.44
2023-04-01T11:39:22.514Z,-23491.78
2023-04-01T11:41:34.794Z,-23493.84
2023-04-01T11:43:43.832Z,-23480.69
2023-04-01T11:45:52.244Z,-23485.75
2023-04-01T11:48:06.508Z,-23478.94
2023-04-01T11:50:27.618Z,-23480.06
2023-04-01T11:52:57.227Z,-23479.44
2023-04-01T11:55:17.130Z,-23487.03
2023-04-01T11:57:48.224Z,-23483.38
2023-04-01T12:00:13.046Z,-23487.66
2023-04-01T12:02:25.871Z,-23481.97
2023-04-01T12:04:43.507Z,-23481.47
2023-04-01T12:06:54.389Z,-23472.59
2023-04-01T12:09:06.450Z,-23474.81
2023-04-01T12:11:18.613Z,-23477.53
2023-04-01T12:13:32.856Z,-23473.56
2023-04-01T12:16:08.086Z,-23477.69
2023-04-01T12:18:18.996Z,-23480.22
2023-04-01T12:20:32.301Z,-23479.25
2023-04-01T12:22:48.186Z,-23483.06
2023-04-01T12:24:58.422Z,-23480.53
2023-04-01T12:27:21.454Z,-23480.53
2023-04-01T12:29:45.419Z,-23478.31
2023-04-01T12:31:55.905Z,-23484.97
2023-04-01T12:34:29.195Z,-23487.19
2023-04-01T12:36:42.767Z,-23488.47
2023-04-01T12:38:59.719Z,-23500.50
2023-04-01T12:41:21.168Z,-23495.28
2023-04-01T12:43:51.167Z,-23487.50
2023-04-01T12:46:03.582Z,-23502.09
2023-04-01T12:48:42.554Z,-23505.91
2023-04-01T12:51:21.762Z,-23489.09
2023-04-01T12:53:52.748Z,-23485.91
2023-04-01T12:55:57.652Z,-23486.56
2023-04-01T12:58:45.014Z,-23498.44
2023-04-01T13:01:11.835Z,-23495.75
2023-04-01T13:03:39.416Z,-23499.41
2023-04-01T13:06:13.184Z,-23496.38
2023-04-01T13:08:32.389Z,-23491.78
2023-04-01T13:10:50.578Z,-23492.91
2023-04-01T13:13:07.041Z,-23493.06
2023-04-01T13:15:25.412Z,-23486.56
2023-04-01T13:17:38.922Z,-23487.84
2023-04-01T13:20:04.366Z,-23494.81
2023-04-01T13:22:15.832Z,-23492.75
2023-04-01T13:24:30.147Z,-23485.59
2023-04-01T13:26:39.105Z,-23491.31
2023-04-01T13:28:47.492Z,-23487.84
2023-04-01T13:30:57.813Z,-23489.72
2023-04-01T13:33:12.394Z,-23488.63
2023-04-01T13:35:34.854Z,-23491.78
2023-04-01T13:37:53.996Z,-23493.22
2023-04-01T13:40:20.402Z,-23485.91
2023-04-01T13:42:28.936Z,-23492.25
2023-04-01T13:44:37.133Z,-23496.38
2023-04-01T13:46:56.429Z,-23492.59
2023-04-01T13:49:26.334Z,-23492.91
2023-04-01T13:51:53.157Z,-23491.00
2023-04-01T13:54:18.945Z,-23490.38
2023-04-01T13:56:43.154Z,-23500.97
2023-04-01T13:59:18.208Z,-23498.59
2023-04-01T14:01:32.768Z,-23498.59
2023-04-01T14:04:08.638Z,-23498.75
2023-04-01T14:06:23.964Z,-23501.78
2023-04-01T14:08:36.079Z,-23503.03
2023-04-01T14:10:45.099Z,-23506.53
2023-04-01T14:12:55.585Z,-23507.47
2023-04-01T14:15:20.596Z,-23512.84
2023-04-01T14:17:53.095Z,-23507.00
2023-04-01T14:20:09.895Z,-23507.63
2023-04-01T14:22:26.160Z,-23501.13
2023-04-01T14:24:44.230Z,-23501.63
2023-04-01T14:27:09.916Z,-23502.09
2023-04-01T14:29:26.391Z,-23496.06
2023-04-01T14:34:08.311Z,-23496.72
2023-04-01T14:36:44.400Z,-23488.94
2023-04-01T14:39:03.772Z,-23492.09
2023-04-01T14:41:19.185Z,-23492.91
2023-04-01T14:44:03.467Z,-23496.06
2023-04-01T14:46:52.079Z,-23490.38
2023-04-01T14:48:58.007Z,-23497.81
2023-04-01T14:51:10.991Z,-23494.97
2023-04-01T14:53:25.276Z,-23494.50
2023-04-01T14:55:35.269Z,-23488.78
2023-04-01T14:57:38.227Z,-23485.28
2023-04-01T14:59:43.580Z,-23485.75
2023-04-01T15:01:52.113Z,-23483.84
2023-04-01T15:04:05.915Z,-23485.28
2023-04-01T15:06:41.312Z,-23489.72
2023-04-01T15:08:54.828Z,-23488.16
2023-04-01T15:11:27.841Z,-23488.47
2023-04-01T15:13:47.072Z,-23480.84
2023-04-01T15:16:03.418Z,-23488.31
2023-04-01T15:18:11.962Z,-23478.47
2023-04-01T15:20:33.198Z,-23482.59
2023-04-01T15:22:55.640Z,-23487.50
2023-04-01T15:25:16.351Z,-23482.59
2023-04-01T15:27:37.798Z,-23483.84
2023-04-01T15:30:16.892Z,-23487.19
2023-04-01T15:32:27.226Z,-23490.22
2023-04-01T15:34:37.844Z,-23492.44
2023-04-01T15:36:46.926Z,-23489.25
2023-04-01T15:38:53.931Z,-23486.25
2023-04-01T15:41:05.780Z,-23485.13
2023-04-01T15:43:23.298Z,-23484.19
2023-04-01T15:45:40.317Z,-23485.75
2023-04-01T15:47:46.579Z,-23482.91
2023-04-01T15:49:58.220Z,-23480.22
2023-04-01T15:52:07.642Z,-23479.25
2023-04-01T15:54:43.144Z,-23480.69
2023-04-01T15:56:54.938Z,-23481.16
2023-04-01T15:59:11.526Z,-23482.75
2023-04-01T16:01:26.144Z,-23480.22
2023-04-01T16:03:44.964Z,-23479.91
2023-04-01T16:06:10.824Z,-23477.84
2023-04-01T16:08:44.181Z,-23476.25
2023-04-01T16:10:58.904Z,-23480.06
2023-04-01T16:13:16.728Z,-23480.22
2023-04-01T16:15:29.164Z,-23475.47
2023-04-01T16:17:46.285Z,-23476.41
2023-04-01T16:19:55.246Z,-23474.50
2023-04-01T16:22:05.955Z,-23470.38
2023-04-01T16:24:19.459Z,-23465.00
2023-04-01T16:26:28.578Z,-23473.25
2023-04-01T16:28:35.274Z,-23466.91
2023-04-01T16:30:40.462Z,-23470.38
2023-04-01T16:32:51.139Z,-23470.53
2023-04-01T16:35:03.717Z,-23473.56
2023-04-01T16:37:13.823Z,-23469.59
2023-04-01T16:39:29.373Z,-23473.41
2023-04-01T16:41:35.590Z,-23471.97
2023-04-01T16:43:47.339Z,-23475.63
2023-04-01T16:46:08.467Z,-23467.53
2023-04-01T16:48:14.789Z,-23465.16
2023-04-01T16:50:22.539Z,-23465.94
2023-04-01T16:52:38.552Z,-23465.63
2023-04-01T16:54:47.465Z,-23465.78
2023-04-01T16:56:52.877Z,-23468.63
2023-04-01T16:59:04.432Z,-23471.50
2023-04-01T17:01:14.048Z,-23475.94
2023-04-01T17:03:23.707Z,-23474.81
2023-04-01T17:05:42.946Z,-23473.09
2023-04-01T17:07:51.262Z,-23473.41
2023-04-01T17:10:08.429Z,-23474.50
2023-04-01T17:12:19.276Z,-23472.44
2023-04-01T17:14:31.134Z,-23472.13
2023-04-01T17:16:53.502Z,-23472.13
2023-04-01T17:19:07.530Z,-23473.56
2023-04-01T17:21:18.281Z,-23472.75
2023-04-01T17:23:29.560Z,-23469.75
2023-04-01T17:25:44.781Z,-23470.38
2023-04-01T17:27:53.991Z,-23473.56
2023-04-01T17:30:19.240Z,-23470.38
2023-04-01T17:32:40.148Z,-23469.75
2023-04-01T17:34:53.292Z,-23468.97
2023-04-01T17:37:10.385Z,-23470.06
2023-04-01T17:39:27.252Z,-23468.16
2023-04-01T17:41:39.260Z,-23465.94
2023-04-01T17:43:50.088Z,-23465.78
2023-04-01T17:45:57.049Z,-23465.78
2023-04-01T17:48:17.242Z,-23465.63
2023-04-01T17:50:25.858Z,-23464.38
2023-04-01T17:52:35.812Z,-23466.91
2023-04-01T17:54:45.442Z,-23464.69
2023-04-01T17:57:04.025Z,-23462.47
2023-04-01T17:59:17.910Z,-23462.13
2023-04-01T18:01:43.288Z,-23462.31
2023-04-01T18:04:19.599Z,-23463.72
2023-04-01T18:06:32.417Z,-23461.03
2023-04-01T18:08:46.884Z,-23462.63
2023-04-01T18:11:02.189Z,-23460.25
2023-04-01T18:13:24.095Z,-23461.50
2023-04-01T18:15:33.610Z,-23461.19
2023-04-01T18:17:47.061Z,-23462.13
2023-04-01T18:20:13.411Z,-23457.69
2023-04-01T18:22:22.781Z,-23454.22
2023-04-01T18:24:32.621Z,-23452.31
2023-04-01T18:26:38.092Z,-23452.63
2023-04-01T18:28:44.320Z,-23450.09
2023-04-01T18:30:55.732Z,-23452.31
2023-04-01T18:33:04.547Z,-23448.03
2023-04-01T18:35:21.451Z,-23446.28
2023-04-01T18:37:29.814Z,-23450.09
2023-04-01T18:39:38.882Z,-23444.22
2023-04-01T18:41:52.211Z,-23440.41
2023-04-01T18:44:04.014Z,-23439.47
2023-04-01T18:46:14.328Z,-23437.72
2023-04-01T18:48:28.665Z,-23437.72
2023-04-01T18:50:39.007Z,-23435.81
2023-04-01T18:52:45.545Z,-23433.09
2023-04-01T18:55:13.179Z,-23435.47
2023-04-01T18:57:17.095Z,-23431.03
2023-04-01T18:59:28.290Z,-23429.44
2023-04-01T19:01:39.837Z,-23429.44
2023-04-01T19:03:48.853Z,-23427.38
2023-04-01T19:05:53.862Z,-23426.75
2023-04-01T19:08:18.973Z,-23428.19
2023-04-01T19:10:28.654Z,-23424.06
2023-04-01T19:12:41.552Z,-23423.09
2023-04-01T19:15:01.883Z,-23421.03
2023-04-01T19:17:12.030Z,-23421.50
2023-04-01T19:19:29.621Z,-23419.28
2023-04-01T19:21:37.344Z,-23418.03
2023-04-01T19:24:02.667Z,-23417.06
2023-04-01T19:26:07.917Z,-23416.44
2023-04-01T19:28:29.186Z,-23417.06
2023-04-01T19:30:44.195Z,-23415.16
2023-04-01T19:32:57.647Z,-23415.00
2023-04-01T19:35:15.301Z,-23415.00
2023-04-01T19:37:31.486Z,-23414.69
2023-04-01T19:39:47.927Z,-23415.00
2023-04-01T19:41:59.793Z,-23414.22
2023-04-01T19:44:15.604Z,-23413.56
2023-04-01T19:46:26.462Z,-23416.28
2023-04-01T19:48:43.759Z,-23417.38
2023-04-01T19:50:53.279Z,-23417.38
2023-04-01T19:52:59.768Z,-23417.53
2023-04-01T19:55:13.722Z,-23417.38
2023-04-01T19:57:24.594Z,-23415.16
2023-04-01T19:59:35.874Z,-23415.78
2023-04-01T20:01:45.129Z,-23413.88
2023-04-01T20:03:52.736Z,-23415.97
2023-04-01T20:06:07.124Z,-23415.16
2023-04-01T20:08:17.864Z,-23415.16
2023-04-01T20:10:27.375Z,-23415.47
2023-04-01T20:12:43.998Z,-23415.63
2023-04-01T20:14:50.786Z,-23414.22
2023-04-01T20:17:03.577Z,-23415.00
2023-04-01T20:19:06.799Z,-23413.56
2023-04-01T20:21:26.477Z,-23413.88
2023-04-01T20:23:41.646Z,-23409.44
2023-04-01T20:25:52.118Z,-23407.22
2023-04-01T20:27:58.684Z,-23405.94
2023-04-01T20:30:40.992Z,-23404.69
2023-04-01T20:32:50.062Z,-23402.63
2023-04-01T20:35:10.136Z,-23403.41
2023-04-01T20:37:26.092Z,-23401.81
2023-04-01T20:39:57.333Z,-23403.88
2023-04-01T20:42:28.015Z,-23403.25
2023-04-01T20:44:39.766Z,-23402.13
2023-04-01T20:46:50.060Z,-23400.53
2023-04-01T20:49:27.888Z,-23398.97
2023-04-01T20:51:34.198Z,-23399.91
2023-04-01T20:53:42.650Z,-23400.88
2023-04-01T20:56:24.013Z,-23400.53
2023-04-01T20:58:40.675Z,-23400.53
2023-04-01T21:00:58.296Z,-23402.13
2023-04-01T21:03:13.384Z,-23403.41
2023-04-01T21:05:33.054Z,-23403.41
2023-04-01T21:07:43.496Z,-23404.84
2023-04-01T21:09:55.642Z,-23403.56
2023-04-01T21:12:07.527Z,-23405.00
2023-04-01T21:14:35.901Z,-23405.63
2023-04-01T21:16:46.039Z,-23408.50
2023-04-01T21:19:02.447Z,-23407.22
2023-04-01T21:21:22.308Z,-23407.84
2023-04-01T21:23:44.062Z,-23406.41
2023-04-01T21:25:59.051Z,-23408.16
2023-04-01T21:28:32.304Z,-23409.13
2023-04-01T21:30:50.344Z,-23408.81
2023-04-01T21:33:09.504Z,-23410.72
2023-04-01T21:35:25.602Z,-23408.81
2023-04-01T21:37:47.532Z,-23410.72
2023-04-01T21:40:05.487Z,-23407.69
2023-04-01T21:42:21.444Z,-23406.91
2023-04-01T21:44:45.164Z,-23407.84
2023-04-01T21:47:29.515Z,-23407.84
2023-04-01T21:49:51.921Z,-23407.22
2023-04-01T21:52:40.347Z,-23407.22
2023-04-01T21:55:08.102Z,-23409.91
2023-04-01T21:57:38.017Z,-23410.06
2023-04-01T22:00:20.806Z,-23411.03
2023-04-01T22:02:47.367Z,-23410.41
2023-04-01T22:05:00.041Z,-23412.13
2023-04-01T22:07:08.485Z,-23411.81
2023-04-01T22:09:18.529Z,-23413.56
2023-04-01T22:11:33.783Z,-23413.88
2023-04-01T22:13:41.829Z,-23411.66
2023-04-01T22:16:06.560Z,-23410.72
2023-04-01T22:18:20.458Z,-23410.06
2023-04-01T22:20:31.462Z,-23412.63
2023-04-01T22:22:51.441Z,-23413.56
2023-04-01T22:25:06.408Z,-23417.53
2023-04-01T22:27:19.165Z,-23414.22
2023-04-01T22:29:26.950Z,-23413.88
2023-04-01T22:31:34.575Z,-23411.19
2023-04-01T22:33:47.271Z,-23411.81
2023-04-01T22:35:54.363Z,-23410.56
2023-04-01T22:38:04.956Z,-23411.81
2023-04-01T22:40:23.184Z,-23411.03
2023-04-01T22:42:37.601Z,-23413.88
2023-04-01T22:44:54.216Z,-23411.66
2023-04-01T22:47:06.310Z,-23412.47
2023-04-01T22:49:17.739Z,-23413.41
2023-04-01T22:51:23.584Z,-23411.66
2023-04-01T22:53:40.604Z,-23412.78
2023-04-01T22:55:53.459Z,-23410.72
2023-04-01T22:58:02.060Z,-23409.13
2023-04-01T23:00:10.510Z,-23411.66
2023-04-01T23:02:17.430Z,-23411.03
2023-04-01T23:04:27.092Z,-23409.13
2023-04-01T23:06:34.987Z,-23409.13
2023-04-01T23:08:56.747Z,-23405.47
2023-04-01T23:11:02.545Z,-23405.94
2023-04-01T23:13:07.973Z,-23403.56
2023-04-01T23:15:14.971Z,-23404.53
2023-04-01T23:17:33.205Z,-23403.09
2023-04-01T23:19:44.570Z,-23400.88
2023-04-01T23:21:53.214Z,-23402.78
2023-04-01T23:24:05.179Z,-23401.19
2023-04-01T23:26:14.390Z,-23400.22
2023-04-01T23:28:32.882Z,-23397.22
2023-04-01T23:30:52.434Z,-23396.72
2023-04-01T23:32:55.360Z,-23394.66
2023-04-01T23:35:01.966Z,-23393.41
2023-04-01T23:37:07.421Z,-23391.66
2023-04-01T23:39:23.439Z,-23394.81
2023-04-01T23:41:30.153Z,-23393.22
2023-04-01T23:43:33.924Z,-23393.22
2023-04-01T23:45:36.732Z,-23389.25
2023-04-01T23:47:41.811Z,-23390.06
2023-04-01T23:49:50.139Z,-23390.38
2023-04-01T23:51:58.200Z,-23390.53
2023-04-01T23:54:05.433Z,-23391.00
2023-04-01T23:56:08.329Z,-23388.47
2023-04-01T23:58:20.531Z,-23385.78
